Terminal Aerodrome Forecast
Issued by NWS

Home | Current Version | Previous Version | Text Only | Print | Product List | Glossary On
Versions: 1 2 3 4 5 6 7 8 9 10 11 12 13 14 15 16 17 18 19 20 21 22 23 24 25 26 27 28 29 30 31 32 33 34 35 36 37 38 39 40 41 42 43 44 45 46 47 48 49
853
FTUS44 KHGX 140534
TAFLBX
TAF
KLBX 140534Z 1406/1506 12008KT P6SM SCT015 SCT025
     FM140800 13008KT P6SM SCT007 BKN015 OVC025
     FM141500 16011KT P6SM SCT025 BKN035
     FM141700 18014G24KT P6SM BKN045
     FM142300 16009KT P6SM BKN035
     FM150500 15005KT 5SM BR FEW005 SCT015 BKN025=

USA.gov is the U.S. government's official web portal to all federal, state and local government web resources and services.